sensor_id;sensor_type;location;lat;lon;timestamp;P1;durP1;ratioP1;P2;durP2;ratioP2
44428;SDS011;30134;47.866;-4.222;2023-08-12T00:01:56;21.98;;;15.93;;
44428;SDS011;30134;47.866;-4.222;2023-08-12T00:04:22;21.65;;;15.55;;
44428;SDS011;30134;47.866;-4.222;2023-08-12T00:06:48;19.20;;;13.77;;
44428;SDS011;30134;47.866;-4.222;2023-08-12T00:09:15;21.15;;;13.93;;
44428;SDS011;30134;47.866;-4.222;2023-08-12T00:11:41;22.08;;;14.10;;
44428;SDS011;30134;47.866;-4.222;2023-08-12T00:14:07;20.73;;;13.07;;
44428;SDS011;30134;47.866;-4.222;2023-08-12T00:16:34;19.08;;;12.57;;
44428;SDS011;30134;47.866;-4.222;2023-08-12T00:19:00;17.58;;;11.88;;
44428;SDS011;30134;47.866;-4.222;2023-08-12T00:21:27;17.80;;;11.48;;
44428;SDS011;30134;47.866;-4.222;2023-08-12T00:23:53;15.95;;;10.88;;
44428;SDS011;30134;47.866;-4.222;2023-08-12T00:26:20;16.65;;;10.95;;
44428;SDS011;30134;47.866;-4.222;2023-08-12T00:28:48;19.13;;;11.55;;
44428;SDS011;30134;47.866;-4.222;2023-08-12T00:31:15;15.48;;;10.35;;
44428;SDS011;30134;47.866;-4.222;2023-08-12T00:33:41;16.25;;;10.45;;
44428;SDS011;30134;47.866;-4.222;2023-08-12T00:36:08;16.88;;;9.65;;
44428;SDS011;30134;47.866;-4.222;2023-08-12T00:38:34;14.48;;;8.65;;
44428;SDS011;30134;47.866;-4.222;2023-08-12T00:41:01;15.48;;;9.07;;
44428;SDS011;30134;47.866;-4.222;2023-08-12T00:43:28;15.25;;;8.85;;
44428;SDS011;30134;47.866;-4.222;2023-08-12T00:45:54;14.52;;;8.95;;
44428;SDS011;30134;47.866;-4.222;2023-08-12T00:48:21;12.60;;;8.38;;
44428;SDS011;30134;47.866;-4.222;2023-08-12T00:50:48;13.65;;;7.68;;
44428;SDS011;30134;47.866;-4.222;2023-08-12T00:53:15;13.15;;;7.45;;
44428;SDS011;30134;47.866;-4.222;2023-08-12T00:55:42;13.05;;;7.85;;
44428;SDS011;30134;47.866;-4.222;2023-08-12T00:58:08;11.35;;;6.88;;
44428;SDS011;30134;47.866;-4.222;2023-08-12T01:00:35;11.60;;;7.05;;
44428;SDS011;30134;47.866;-4.222;2023-08-12T01:03:02;10.80;;;6.55;;
44428;SDS011;30134;47.866;-4.222;2023-08-12T01:05:29;12.75;;;6.75;;
44428;SDS011;30134;47.866;-4.222;2023-08-12T01:07:56;11.88;;;7.10;;
44428;SDS011;30134;47.866;-4.222;2023-08-12T01:10:23;10.73;;;6.38;;
44428;SDS011;30134;47.866;-4.222;2023-08-12T01:15:28;10.32;;;5.45;;
44428;SDS011;30134;47.866;-4.222;2023-08-12T01:17:57;11.75;;;5.95;;
44428;SDS011;30134;47.866;-4.222;2023-08-12T01:20:25;10.18;;;5.78;;
44428;SDS011;30134;47.866;-4.222;2023-08-12T01:25:36;9.38;;;5.40;;
44428;SDS011;30134;47.866;-4.222;2023-08-12T01:28:02;9.45;;;5.20;;
44428;SDS011;30134;47.866;-4.222;2023-08-12T01:30:29;9.57;;;5.22;;
44428;SDS011;30134;47.866;-4.222;2023-08-12T01:32:58;11.40;;;5.22;;
44428;SDS011;30134;47.866;-4.222;2023-08-12T01:35:33;8.00;;;5.00;;
44428;SDS011;30134;47.866;-4.222;2023-08-12T01:38:03;8.60;;;4.63;;
44428;SDS011;30134;47.866;-4.222;2023-08-12T01:40:33;8.15;;;4.65;;
44428;SDS011;30134;47.866;-4.222;2023-08-12T01:43:01;6.57;;;4.10;;
44428;SDS011;30134;47.866;-4.222;2023-08-12T01:45:32;9.43;;;4.60;;
44428;SDS011;30134;47.866;-4.222;2023-08-12T01:47:59;10.90;;;4.05;;
44428;SDS011;30134;47.866;-4.222;2023-08-12T01:50:25;9.38;;;4.30;;
44428;SDS011;30134;47.866;-4.222;2023-08-12T01:52:52;7.95;;;4.22;;
44428;SDS011;30134;47.866;-4.222;2023-08-12T01:55:18;88.30;;;57.63;;
44428;SDS011;30134;47.866;-4.222;2023-08-12T01:57:45;154.15;;;106.22;;
44428;SDS011;30134;47.866;-4.222;2023-08-12T02:00:11;184.95;;;128.93;;
44428;SDS011;30134;47.866;-4.222;2023-08-12T02:02:38;183.18;;;131.50;;
44428;SDS011;30134;47.866;-4.222;2023-08-12T02:05:04;154.25;;;106.65;;
44428;SDS011;30134;47.866;-4.222;2023-08-12T02:07:31;123.07;;;84.85;;
44428;SDS011;30134;47.866;-4.222;2023-08-12T02:09:57;114.72;;;79.28;;
44428;SDS011;30134;47.866;-4.222;2023-08-12T02:12:24;104.65;;;73.55;;
44428;SDS011;30134;47.866;-4.222;2023-08-12T02:14:50;108.28;;;74.45;;
44428;SDS011;30134;47.866;-4.222;2023-08-12T02:17:16;105.63;;;72.05;;
44428;SDS011;30134;47.866;-4.222;2023-08-12T02:19:43;100.13;;;67.60;;
44428;SDS011;30134;47.866;-4.222;2023-08-12T02:22:09;92.40;;;63.67;;
44428;SDS011;30134;47.866;-4.222;2023-08-12T02:24:36;86.47;;;61.08;;
44428;SDS011;30134;47.866;-4.222;2023-08-12T02:27:03;86.90;;;57.75;;
44428;SDS011;30134;47.866;-4.222;2023-08-12T02:29:29;80.07;;;54.85;;
44428;SDS011;30134;47.866;-4.222;2023-08-12T02:31:56;78.72;;;52.92;;
44428;SDS011;30134;47.866;-4.222;2023-08-12T02:34:25;75.32;;;52.47;;
44428;SDS011;30134;47.866;-4.222;2023-08-12T02:36:51;76.50;;;49.15;;
44428;SDS011;30134;47.866;-4.222;2023-08-12T02:39:17;66.43;;;47.78;;
44428;SDS011;30134;47.866;-4.222;2023-08-12T02:41:44;68.78;;;46.67;;
44428;SDS011;30134;47.866;-4.222;2023-08-12T02:44:10;62.38;;;42.70;;
44428;SDS011;30134;47.866;-4.222;2023-08-12T02:46:36;63.42;;;42.22;;
44428;SDS011;30134;47.866;-4.222;2023-08-12T02:49:03;55.58;;;38.75;;
44428;SDS011;30134;47.866;-4.222;2023-08-12T02:51:29;55.80;;;38.75;;
44428;SDS011;30134;47.866;-4.222;2023-08-12T02:53:56;52.97;;;37.00;;
44428;SDS011;30134;47.866;-4.222;2023-08-12T02:56:22;48.92;;;32.63;;
44428;SDS011;30134;47.866;-4.222;2023-08-12T02:58:48;47.85;;;34.25;;
44428;SDS011;30134;47.866;-4.222;2023-08-12T03:01:15;47.97;;;32.35;;
44428;SDS011;30134;47.866;-4.222;2023-08-12T03:03:41;46.05;;;29.48;;
44428;SDS011;30134;47.866;-4.222;2023-08-12T03:06:08;44.38;;;27.83;;
44428;SDS011;30134;47.866;-4.222;2023-08-12T03:08:35;42.53;;;28.48;;
44428;SDS011;30134;47.866;-4.222;2023-08-12T03:11:01;39.22;;;24.65;;
44428;SDS011;30134;47.866;-4.222;2023-08-12T03:13:31;37.17;;;24.98;;
44428;SDS011;30134;47.866;-4.222;2023-08-12T03:15:57;39.38;;;24.02;;
44428;SDS011;30134;47.866;-4.222;2023-08-12T03:18:24;34.72;;;22.50;;
44428;SDS011;30134;47.866;-4.222;2023-08-12T03:20:50;33.10;;;19.85;;
44428;SDS011;30134;47.866;-4.222;2023-08-12T03:23:17;33.60;;;20.60;;
44428;SDS011;30134;47.866;-4.222;2023-08-12T03:25:43;33.30;;;19.85;;
44428;SDS011;30134;47.866;-4.222;2023-08-12T03:28:12;30.13;;;18.15;;
44428;SDS011;30134;47.866;-4.222;2023-08-12T03:30:38;27.48;;;18.15;;
44428;SDS011;30134;47.866;-4.222;2023-08-12T03:33:04;27.35;;;16.25;;
44428;SDS011;30134;47.866;-4.222;2023-08-12T03:35:31;28.90;;;16.25;;
44428;SDS011;30134;47.866;-4.222;2023-08-12T03:37:57;27.20;;;15.57;;
44428;SDS011;30134;47.866;-4.222;2023-08-12T03:40:24;27.08;;;14.98;;
44428;SDS011;30134;47.866;-4.222;2023-08-12T03:42:50;26.13;;;14.80;;
44428;SDS011;30134;47.866;-4.222;2023-08-12T03:45:16;27.67;;;13.75;;
44428;SDS011;30134;47.866;-4.222;2023-08-12T03:47:43;23.38;;;13.43;;
44428;SDS011;30134;47.866;-4.222;2023-08-12T03:50:09;24.30;;;13.13;;
44428;SDS011;30134;47.866;-4.222;2023-08-12T03:52:35;25.30;;;13.73;;
44428;SDS011;30134;47.866;-4.222;2023-08-12T03:55:02;25.00;;;12.30;;
44428;SDS011;30134;47.866;-4.222;2023-08-12T03:57:29;17.20;;;11.32;;
44428;SDS011;30134;47.866;-4.222;2023-08-12T03:59:56;23.92;;;11.63;;
44428;SDS011;30134;47.866;-4.222;2023-08-12T04:02:22;18.55;;;10.48;;
44428;SDS011;30134;47.866;-4.222;2023-08-12T04:04:49;23.13;;;10.55;;
44428;SDS011;30134;47.866;-4.222;2023-08-12T04:07:15;17.90;;;9.73;;
44428;SDS011;30134;47.866;-4.222;2023-08-12T04:09:42;20.65;;;10.02;;
44428;SDS011;30134;47.866;-4.222;2023-08-12T04:12:08;18.88;;;9.63;;
44428;SDS011;30134;47.866;-4.222;2023-08-12T04:14:34;18.98;;;9.65;;
44428;SDS011;30134;47.866;-4.222;2023-08-12T04:17:01;18.20;;;8.48;;
44428;SDS011;30134;47.866;-4.222;2023-08-12T04:19:27;19.30;;;9.07;;
44428;SDS011;30134;47.866;-4.222;2023-08-12T04:21:53;17.88;;;8.95;;
44428;SDS011;30134;47.866;-4.222;2023-08-12T04:24:20;16.33;;;7.78;;
44428;SDS011;30134;47.866;-4.222;2023-08-12T04:26:46;15.00;;;8.35;;
44428;SDS011;30134;47.866;-4.222;2023-08-12T04:29:12;14.07;;;7.60;;
44428;SDS011;30134;47.866;-4.222;2023-08-12T04:31:40;16.10;;;7.95;;
44428;SDS011;30134;47.866;-4.222;2023-08-12T04:34:06;16.23;;;7.53;;
44428;SDS011;30134;47.866;-4.222;2023-08-12T04:36:33;17.30;;;9.52;;
44428;SDS011;30134;47.866;-4.222;2023-08-12T04:38:59;311.30;;;216.18;;
44428;SDS011;30134;47.866;-4.222;2023-08-12T04:41:26;110.00;;;70.43;;
44428;SDS011;30134;47.866;-4.222;2023-08-12T04:43:53;111.13;;;71.18;;
44428;SDS011;30134;47.866;-4.222;2023-08-12T04:46:19;104.53;;;69.20;;
44428;SDS011;30134;47.866;-4.222;2023-08-12T04:48:45;102.80;;;67.45;;
44428;SDS011;30134;47.866;-4.222;2023-08-12T04:51:15;102.25;;;65.55;;
44428;SDS011;30134;47.866;-4.222;2023-08-12T04:53:41;91.07;;;60.60;;
44428;SDS011;30134;47.866;-4.222;2023-08-12T04:56:07;91.05;;;58.70;;
44428;SDS011;30134;47.866;-4.222;2023-08-12T04:58:34;83.63;;;55.70;;
44428;SDS011;30134;47.866;-4.222;2023-08-12T05:01:00;82.00;;;53.33;;
44428;SDS011;30134;47.866;-4.222;2023-08-12T05:03:28;80.00;;;51.22;;
44428;SDS011;30134;47.866;-4.222;2023-08-12T05:05:54;76.97;;;49.10;;
44428;SDS011;30134;47.866;-4.222;2023-08-12T05:08:21;71.50;;;47.30;;
44428;SDS011;30134;47.866;-4.222;2023-08-12T05:10:47;66.63;;;42.47;;
44428;SDS011;30134;47.866;-4.222;2023-08-12T05:13:14;65.32;;;41.00;;
44428;SDS011;30134;47.866;-4.222;2023-08-12T05:15:44;59.33;;;38.80;;
44428;SDS011;30134;47.866;-4.222;2023-08-12T05:18:12;57.10;;;37.20;;
44428;SDS011;30134;47.866;-4.222;2023-08-12T05:20:42;52.95;;;34.00;;
44428;SDS011;30134;47.866;-4.222;2023-08-12T05:23:09;55.03;;;33.80;;
44428;SDS011;30134;47.866;-4.222;2023-08-12T05:25:35;54.78;;;32.92;;
44428;SDS011;30134;47.866;-4.222;2023-08-12T05:28:06;47.85;;;30.45;;
44428;SDS011;30134;47.866;-4.222;2023-08-12T05:30:33;48.63;;;30.05;;
44428;SDS011;30134;47.866;-4.222;2023-08-12T05:33:00;42.90;;;27.80;;
44428;SDS011;30134;47.866;-4.222;2023-08-12T05:35:27;43.30;;;27.50;;
44428;SDS011;30134;47.866;-4.222;2023-08-12T05:37:58;46.97;;;26.10;;
44428;SDS011;30134;47.866;-4.222;2023-08-12T05:40:24;36.85;;;23.10;;
44428;SDS011;30134;47.866;-4.222;2023-08-12T05:42:50;39.22;;;23.70;;
44428;SDS011;30134;47.866;-4.222;2023-08-12T05:45:16;37.85;;;22.67;;
44428;SDS011;30134;47.866;-4.222;2023-08-12T05:47:43;38.95;;;22.60;;
44428;SDS011;30134;47.866;-4.222;2023-08-12T05:50:09;34.20;;;20.35;;
44428;SDS011;30134;47.866;-4.222;2023-08-12T05:52:36;30.33;;;18.77;;
44428;SDS011;30134;47.866;-4.222;2023-08-12T05:55:02;33.70;;;18.70;;
44428;SDS011;30134;47.866;-4.222;2023-08-12T05:57:29;30.35;;;16.80;;
44428;SDS011;30134;47.866;-4.222;2023-08-12T05:59:55;28.48;;;16.73;;
44428;SDS011;30134;47.866;-4.222;2023-08-12T06:02:22;30.55;;;17.40;;
44428;SDS011;30134;47.866;-4.222;2023-08-12T06:04:48;26.58;;;15.07;;
44428;SDS011;30134;47.866;-4.222;2023-08-12T06:07:15;30.10;;;15.45;;
44428;SDS011;30134;47.866;-4.222;2023-08-12T06:09:41;27.10;;;14.30;;
44428;SDS011;30134;47.866;-4.222;2023-08-12T06:12:08;22.92;;;13.68;;
44428;SDS011;30134;47.866;-4.222;2023-08-12T06:14:36;23.05;;;12.57;;
44428;SDS011;30134;47.866;-4.222;2023-08-12T06:17:04;26.17;;;12.80;;
44428;SDS011;30134;47.866;-4.222;2023-08-12T06:19:30;21.90;;;10.98;;
44428;SDS011;30134;47.866;-4.222;2023-08-12T06:21:57;22.70;;;11.40;;
44428;SDS011;30134;47.866;-4.222;2023-08-12T06:24:24;21.33;;;11.65;;
44428;SDS011;30134;47.866;-4.222;2023-08-12T06:26:53;20.05;;;10.30;;
44428;SDS011;30134;47.866;-4.222;2023-08-12T06:29:20;19.70;;;9.75;;
44428;SDS011;30134;47.866;-4.222;2023-08-12T06:31:46;22.30;;;10.32;;
44428;SDS011;30134;47.866;-4.222;2023-08-12T06:34:12;18.13;;;9.98;;
44428;SDS011;30134;47.866;-4.222;2023-08-12T06:36:41;21.23;;;9.50;;
44428;SDS011;30134;47.866;-4.222;2023-08-12T06:39:10;17.63;;;9.02;;
44428;SDS011;30134;47.866;-4.222;2023-08-12T06:41:37;19.75;;;8.82;;
44428;SDS011;30134;47.866;-4.222;2023-08-12T06:44:09;18.23;;;8.63;;
44428;SDS011;30134;47.866;-4.222;2023-08-12T06:46:36;15.13;;;7.60;;
44428;SDS011;30134;47.866;-4.222;2023-08-12T06:49:05;22.02;;;8.43;;
44428;SDS011;30134;47.866;-4.222;2023-08-12T06:51:32;15.98;;;6.97;;
44428;SDS011;30134;47.866;-4.222;2023-08-12T06:53:58;17.52;;;7.32;;
44428;SDS011;30134;47.866;-4.222;2023-08-12T06:56:24;16.65;;;7.00;;
44428;SDS011;30134;47.866;-4.222;2023-08-12T06:58:51;17.52;;;6.90;;
44428;SDS011;30134;47.866;-4.222;2023-08-12T07:01:17;15.10;;;6.75;;
44428;SDS011;30134;47.866;-4.222;2023-08-12T07:03:43;15.68;;;6.85;;
44428;SDS011;30134;47.866;-4.222;2023-08-12T07:06:10;17.05;;;6.50;;
44428;SDS011;30134;47.866;-4.222;2023-08-12T07:08:36;20.02;;;6.68;;
44428;SDS011;30134;47.866;-4.222;2023-08-12T07:11:02;17.25;;;6.63;;
44428;SDS011;30134;47.866;-4.222;2023-08-12T07:13:29;16.48;;;5.90;;
44428;SDS011;30134;47.866;-4.222;2023-08-12T07:15:56;15.82;;;6.20;;
44428;SDS011;30134;47.866;-4.222;2023-08-12T07:18:22;14.18;;;5.15;;
44428;SDS011;30134;47.866;-4.222;2023-08-12T07:20:49;15.38;;;5.55;;
44428;SDS011;30134;47.866;-4.222;2023-08-12T07:23:15;14.70;;;5.50;;
44428;SDS011;30134;47.866;-4.222;2023-08-12T07:25:41;15.20;;;5.25;;
44428;SDS011;30134;47.866;-4.222;2023-08-12T07:28:08;15.80;;;5.50;;
44428;SDS011;30134;47.866;-4.222;2023-08-12T07:30:34;13.57;;;4.85;;
44428;SDS011;30134;47.866;-4.222;2023-08-12T07:33:01;15.45;;;5.20;;
44428;SDS011;30134;47.866;-4.222;2023-08-12T07:35:27;16.23;;;5.63;;
44428;SDS011;30134;47.866;-4.222;2023-08-12T07:37:54;16.58;;;4.72;;
44428;SDS011;30134;47.866;-4.222;2023-08-12T07:40:20;17.05;;;5.03;;
44428;SDS011;30134;47.866;-4.222;2023-08-12T07:42:46;15.02;;;4.63;;
44428;SDS011;30134;47.866;-4.222;2023-08-12T07:45:13;16.83;;;5.45;;
44428;SDS011;30134;47.866;-4.222;2023-08-12T07:47:39;13.88;;;4.80;;
44428;SDS011;30134;47.866;-4.222;2023-08-12T07:50:06;17.60;;;5.25;;
44428;SDS011;30134;47.866;-4.222;2023-08-12T07:52:33;15.93;;;4.55;;
44428;SDS011;30134;47.866;-4.222;2023-08-12T07:54:59;14.15;;;5.20;;
44428;SDS011;30134;47.866;-4.222;2023-08-12T07:57:26;11.70;;;4.43;;
44428;SDS011;30134;47.866;-4.222;2023-08-12T07:59:52;15.88;;;4.82;;
44428;SDS011;30134;47.866;-4.222;2023-08-12T08:02:18;16.58;;;4.55;;
44428;SDS011;30134;47.866;-4.222;2023-08-12T08:04:45;15.73;;;5.10;;
44428;SDS011;30134;47.866;-4.222;2023-08-12T08:07:14;15.93;;;4.65;;
44428;SDS011;30134;47.866;-4.222;2023-08-12T08:09:41;18.45;;;4.90;;
44428;SDS011;30134;47.866;-4.222;2023-08-12T08:12:08;16.02;;;4.20;;
44428;SDS011;30134;47.866;-4.222;2023-08-12T08:14:35;14.40;;;4.22;;
44428;SDS011;30134;47.866;-4.222;2023-08-12T08:17:02;17.60;;;4.55;;
44428;SDS011;30134;47.866;-4.222;2023-08-12T08:19:28;12.82;;;4.70;;
44428;SDS011;30134;47.866;-4.222;2023-08-12T08:21:56;14.38;;;4.57;;
44428;SDS011;30134;47.866;-4.222;2023-08-12T08:24:23;14.80;;;4.10;;
44428;SDS011;30134;47.866;-4.222;2023-08-12T08:26:49;15.30;;;4.53;;
44428;SDS011;30134;47.866;-4.222;2023-08-12T08:29:16;14.02;;;3.67;;
44428;SDS011;30134;47.866;-4.222;2023-08-12T08:31:42;15.35;;;4.35;;
44428;SDS011;30134;47.866;-4.222;2023-08-12T08:34:08;16.75;;;4.45;;
44428;SDS011;30134;47.866;-4.222;2023-08-12T08:36:35;16.05;;;4.28;;
44428;SDS011;30134;47.866;-4.222;2023-08-12T08:39:01;12.05;;;3.97;;
44428;SDS011;30134;47.866;-4.222;2023-08-12T08:41:29;14.55;;;4.38;;
44428;SDS011;30134;47.866;-4.222;2023-08-12T08:44:00;16.42;;;4.00;;
44428;SDS011;30134;47.866;-4.222;2023-08-12T08:46:33;12.52;;;3.40;;
44428;SDS011;30134;47.866;-4.222;2023-08-12T08:49:00;18.42;;;4.10;;
44428;SDS011;30134;47.866;-4.222;2023-08-12T08:51:27;14.70;;;4.55;;
44428;SDS011;30134;47.866;-4.222;2023-08-12T08:53:55;16.08;;;4.43;;
44428;SDS011;30134;47.866;-4.222;2023-08-12T08:56:23;12.32;;;3.60;;
44428;SDS011;30134;47.866;-4.222;2023-08-12T08:58:49;14.95;;;4.28;;
44428;SDS011;30134;47.866;-4.222;2023-08-12T09:01:17;17.00;;;4.38;;
44428;SDS011;30134;47.866;-4.222;2023-08-12T09:03:47;14.00;;;3.67;;
44428;SDS011;30134;47.866;-4.222;2023-08-12T09:06:15;14.43;;;4.15;;
44428;SDS011;30134;47.866;-4.222;2023-08-12T09:08:45;16.25;;;4.60;;
44428;SDS011;30134;47.866;-4.222;2023-08-12T09:11:13;13.25;;;3.65;;
44428;SDS011;30134;47.866;-4.222;2023-08-12T09:13:40;12.25;;;3.67;;
44428;SDS011;30134;47.866;-4.222;2023-08-12T09:16:07;16.48;;;4.35;;
44428;SDS011;30134;47.866;-4.222;2023-08-12T09:18:34;17.77;;;3.95;;
44428;SDS011;30134;47.866;-4.222;2023-08-12T09:21:08;14.63;;;3.92;;
44428;SDS011;30134;47.866;-4.222;2023-08-12T09:23:37;15.18;;;4.22;;
44428;SDS011;30134;47.866;-4.222;2023-08-12T09:26:12;14.38;;;3.90;;
44428;SDS011;30134;47.866;-4.222;2023-08-12T09:28:43;15.48;;;4.30;;
44428;SDS011;30134;47.866;-4.222;2023-08-12T09:31:25;18.98;;;4.30;;
44428;SDS011;30134;47.866;-4.222;2023-08-12T09:33:53;15.18;;;4.05;;
44428;SDS011;30134;47.866;-4.222;2023-08-12T09:36:38;16.77;;;4.25;;
44428;SDS011;30134;47.866;-4.222;2023-08-12T09:39:05;15.15;;;3.70;;
44428;SDS011;30134;47.866;-4.222;2023-08-12T09:41:33;16.05;;;4.75;;
44428;SDS011;30134;47.866;-4.222;2023-08-12T09:44:03;11.73;;;3.97;;
44428;SDS011;30134;47.866;-4.222;2023-08-12T09:46:32;17.25;;;4.25;;
44428;SDS011;30134;47.866;-4.222;2023-08-12T09:49:01;14.52;;;4.20;;
44428;SDS011;30134;47.866;-4.222;2023-08-12T09:51:33;13.93;;;4.00;;
44428;SDS011;30134;47.866;-4.222;2023-08-12T09:54:04;14.07;;;3.90;;
44428;SDS011;30134;47.866;-4.222;2023-08-12T09:56:33;15.18;;;4.05;;
44428;SDS011;30134;47.866;-4.222;2023-08-12T09:59:01;16.35;;;4.00;;
44428;SDS011;30134;47.866;-4.222;2023-08-12T10:01:33;13.82;;;4.32;;
44428;SDS011;30134;47.866;-4.222;2023-08-12T10:04:02;17.67;;;4.90;;
44428;SDS011;30134;47.866;-4.222;2023-08-12T10:06:36;14.82;;;4.53;;
44428;SDS011;30134;47.866;-4.222;2023-08-12T10:09:03;14.82;;;4.28;;
44428;SDS011;30134;47.866;-4.222;2023-08-12T10:11:33;22.40;;;5.15;;
44428;SDS011;30134;47.866;-4.222;2023-08-12T10:14:01;19.73;;;4.65;;
44428;SDS011;30134;47.866;-4.222;2023-08-12T10:16:29;15.02;;;3.78;;
44428;SDS011;30134;47.866;-4.222;2023-08-12T10:18:56;16.25;;;4.28;;
44428;SDS011;30134;47.866;-4.222;2023-08-12T10:21:24;21.52;;;5.45;;
44428;SDS011;30134;47.866;-4.222;2023-08-12T10:23:50;16.30;;;4.13;;
44428;SDS011;30134;47.866;-4.222;2023-08-12T10:26:18;15.25;;;4.55;;
44428;SDS011;30134;47.866;-4.222;2023-08-12T10:28:45;19.05;;;5.00;;
44428;SDS011;30134;47.866;-4.222;2023-08-12T10:31:13;14.45;;;4.38;;
44428;SDS011;30134;47.866;-4.222;2023-08-12T10:33:40;15.68;;;3.80;;
44428;SDS011;30134;47.866;-4.222;2023-08-12T10:36:07;17.63;;;4.13;;
44428;SDS011;30134;47.866;-4.222;2023-08-12T10:38:34;21.70;;;4.13;;
44428;SDS011;30134;47.866;-4.222;2023-08-12T10:41:19;15.48;;;4.53;;
44428;SDS011;30134;47.866;-4.222;2023-08-12T10:44:02;16.98;;;5.32;;
44428;SDS011;30134;47.866;-4.222;2023-08-12T10:46:37;19.65;;;4.35;;
44428;SDS011;30134;47.866;-4.222;2023-08-12T10:49:04;17.33;;;4.57;;
44428;SDS011;30134;47.866;-4.222;2023-08-12T10:51:39;18.98;;;4.10;;
44428;SDS011;30134;47.866;-4.222;2023-08-12T10:54:28;13.70;;;3.72;;
44428;SDS011;30134;47.866;-4.222;2023-08-12T11:05:03;16.65;;;4.95;;
44428;SDS011;30134;47.866;-4.222;2023-08-12T11:07:34;17.65;;;4.50;;
44428;SDS011;30134;47.866;-4.222;2023-08-12T11:12:38;26.85;;;6.35;;
44428;SDS011;30134;47.866;-4.222;2023-08-12T11:15:06;24.90;;;4.72;;
44428;SDS011;30134;47.866;-4.222;2023-08-12T11:17:37;28.83;;;6.10;;
44428;SDS011;30134;47.866;-4.222;2023-08-12T11:20:10;23.88;;;5.57;;
44428;SDS011;30134;47.866;-4.222;2023-08-12T11:22:42;23.25;;;5.10;;
44428;SDS011;30134;47.866;-4.222;2023-08-12T11:25:12;22.35;;;4.85;;
44428;SDS011;30134;47.866;-4.222;2023-08-12T11:30:10;30.50;;;6.07;;
44428;SDS011;30134;47.866;-4.222;2023-08-12T11:32:40;23.83;;;4.93;;
44428;SDS011;30134;47.866;-4.222;2023-08-12T11:35:14;24.02;;;5.32;;
44428;SDS011;30134;47.866;-4.222;2023-08-12T11:37:43;26.42;;;5.05;;
44428;SDS011;30134;47.866;-4.222;2023-08-12T11:40:12;22.30;;;4.88;;
44428;SDS011;30134;47.866;-4.222;2023-08-12T11:42:41;26.02;;;5.30;;
44428;SDS011;30134;47.866;-4.222;2023-08-12T11:45:10;22.13;;;4.82;;
44428;SDS011;30134;47.866;-4.222;2023-08-12T11:47:39;18.73;;;4.18;;
44428;SDS011;30134;47.866;-4.222;2023-08-12T11:50:09;22.20;;;4.78;;
44428;SDS011;30134;47.866;-4.222;2023-08-12T11:52:36;20.90;;;4.90;;
44428;SDS011;30134;47.866;-4.222;2023-08-12T11:55:04;21.13;;;4.75;;
44428;SDS011;30134;47.866;-4.222;2023-08-12T11:57:31;26.13;;;5.03;;
44428;SDS011;30134;47.866;-4.222;2023-08-12T11:59:59;20.83;;;4.80;;
44428;SDS011;30134;47.866;-4.222;2023-08-12T12:02:30;24.25;;;5.43;;
44428;SDS011;30134;47.866;-4.222;2023-08-12T12:04:56;23.55;;;5.35;;
44428;SDS011;30134;47.866;-4.222;2023-08-12T12:07:26;25.17;;;5.30;;
44428;SDS011;30134;47.866;-4.222;2023-08-12T12:09:52;24.70;;;5.25;;
44428;SDS011;30134;47.866;-4.222;2023-08-12T12:12:23;27.02;;;5.45;;
44428;SDS011;30134;47.866;-4.222;2023-08-12T12:14:53;25.33;;;4.70;;
44428;SDS011;30134;47.866;-4.222;2023-08-12T12:17:23;20.27;;;5.53;;
44428;SDS011;30134;47.866;-4.222;2023-08-12T12:19:57;19.88;;;5.20;;
44428;SDS011;30134;47.866;-4.222;2023-08-12T12:22:31;22.42;;;4.85;;
44428;SDS011;30134;47.866;-4.222;2023-08-12T12:24:59;30.92;;;5.30;;
44428;SDS011;30134;47.866;-4.222;2023-08-12T12:29:56;212.05;;;124.00;;
44428;SDS011;30134;47.866;-4.222;2023-08-12T12:32:22;105.13;;;56.60;;
44428;SDS011;30134;47.866;-4.222;2023-08-12T12:34:49;52.47;;;26.25;;
44428;SDS011;30134;47.866;-4.222;2023-08-12T12:37:16;36.97;;;17.10;;
44428;SDS011;30134;47.866;-4.222;2023-08-12T12:39:42;29.08;;;10.60;;
44428;SDS011;30134;47.866;-4.222;2023-08-12T12:42:09;24.08;;;7.90;;
44428;SDS011;30134;47.866;-4.222;2023-08-12T12:44:42;23.38;;;6.97;;
44428;SDS011;30134;47.866;-4.222;2023-08-12T12:47:09;27.20;;;6.40;;
44428;SDS011;30134;47.866;-4.222;2023-08-12T12:49:37;20.15;;;4.50;;
44428;SDS011;30134;47.866;-4.222;2023-08-12T12:52:04;18.25;;;4.18;;
44428;SDS011;30134;47.866;-4.222;2023-08-12T12:54:30;21.92;;;4.65;;
44428;SDS011;30134;47.866;-4.222;2023-08-12T12:56:57;23.20;;;4.90;;
44428;SDS011;30134;47.866;-4.222;2023-08-12T12:59:23;25.60;;;5.25;;
44428;SDS011;30134;47.866;-4.222;2023-08-12T13:01:50;19.92;;;4.20;;
44428;SDS011;30134;47.866;-4.222;2023-08-12T13:04:16;19.83;;;4.20;;
44428;SDS011;30134;47.866;-4.222;2023-08-12T13:06:43;18.67;;;4.40;;
44428;SDS011;30134;47.866;-4.222;2023-08-12T13:09:09;23.25;;;4.25;;
44428;SDS011;30134;47.866;-4.222;2023-08-12T13:11:36;23.80;;;4.78;;
44428;SDS011;30134;47.866;-4.222;2023-08-12T13:14:08;21.17;;;4.78;;
44428;SDS011;30134;47.866;-4.222;2023-08-12T13:19:03;23.02;;;5.38;;
44428;SDS011;30134;47.866;-4.222;2023-08-12T13:21:29;19.88;;;4.35;;
44428;SDS011;30134;47.866;-4.222;2023-08-12T13:23:57;23.55;;;5.15;;
44428;SDS011;30134;47.866;-4.222;2023-08-12T13:26:28;23.48;;;4.70;;
44428;SDS011;30134;47.866;-4.222;2023-08-12T13:28:55;18.58;;;3.92;;
44428;SDS011;30134;47.866;-4.222;2023-08-12T13:31:21;15.93;;;3.92;;
44428;SDS011;30134;47.866;-4.222;2023-08-12T13:33:47;23.90;;;5.00;;
44428;SDS011;30134;47.866;-4.222;2023-08-12T13:36:15;12.73;;;3.50;;
44428;SDS011;30134;47.866;-4.222;2023-08-12T13:38:41;19.70;;;3.90;;
44428;SDS011;30134;47.866;-4.222;2023-08-12T13:41:08;12.45;;;3.17;;
44428;SDS011;30134;47.866;-4.222;2023-08-12T13:43:34;16.17;;;4.07;;
44428;SDS011;30134;47.866;-4.222;2023-08-12T13:46:00;15.00;;;4.10;;
44428;SDS011;30134;47.866;-4.222;2023-08-12T13:48:27;18.73;;;3.17;;
44428;SDS011;30134;47.866;-4.222;2023-08-12T13:50:54;14.68;;;3.38;;
44428;SDS011;30134;47.866;-4.222;2023-08-12T13:53:22;10.02;;;2.60;;
44428;SDS011;30134;47.866;-4.222;2023-08-12T13:55:49;17.95;;;3.95;;
44428;SDS011;30134;47.866;-4.222;2023-08-12T13:58:16;13.35;;;3.00;;
44428;SDS011;30134;47.866;-4.222;2023-08-12T14:00:42;13.10;;;3.17;;
44428;SDS011;30134;47.866;-4.222;2023-08-12T14:03:09;13.07;;;3.50;;
44428;SDS011;30134;47.866;-4.222;2023-08-12T14:05:36;12.43;;;3.42;;
44428;SDS011;30134;47.866;-4.222;2023-08-12T14:08:02;16.50;;;3.25;;
44428;SDS011;30134;47.866;-4.222;2023-08-12T14:10:28;16.38;;;3.47;;
44428;SDS011;30134;47.866;-4.222;2023-08-12T14:12:55;11.95;;;2.67;;
44428;SDS011;30134;47.866;-4.222;2023-08-12T14:15:24;14.80;;;3.42;;
44428;SDS011;30134;47.866;-4.222;2023-08-12T14:17:50;14.38;;;2.95;;
44428;SDS011;30134;47.866;-4.222;2023-08-12T14:20:17;12.50;;;3.65;;
44428;SDS011;30134;47.866;-4.222;2023-08-12T14:22:43;21.52;;;3.72;;
44428;SDS011;30134;47.866;-4.222;2023-08-12T14:25:10;14.55;;;3.40;;
44428;SDS011;30134;47.866;-4.222;2023-08-12T14:27:36;16.55;;;3.42;;
44428;SDS011;30134;47.866;-4.222;2023-08-12T14:30:03;14.52;;;3.63;;
44428;SDS011;30134;47.866;-4.222;2023-08-12T14:32:30;16.27;;;3.70;;
44428;SDS011;30134;47.866;-4.222;2023-08-12T14:34:56;15.35;;;3.35;;
44428;SDS011;30134;47.866;-4.222;2023-08-12T14:37:23;16.25;;;3.53;;
44428;SDS011;30134;47.866;-4.222;2023-08-12T14:39:49;15.20;;;3.17;;
44428;SDS011;30134;47.866;-4.222;2023-08-12T14:42:15;17.00;;;3.38;;